»·PEaware :: N946S P20-KGJT

N946S :: P20-KGJT

FLIGHT INFORMATION

Flight Status: Arrived
Operator: Privately registered:
United States
More flights under this callsign
Pilot: Ethan S. (29221)
Aircraft: SOCATA TBM-900
(TBM9)
More flights by this aircraft type
Origin: P20 Avi Suquilla
United States
Destination: KGJT Grand Junction Regl
United States
More flights between these airports :: More routes between these airports
Route: +PGS PGA JNC
File this flight plan on PilotEdge
Remarks:
Altitude:
(Current/Filed)
31,000ft
Speed:
(Current/Filed)
320kts
Departed: 11-Oct-20 12:53 PM
Arrived: 11-Oct-20 02:26 PM
Distance/Time
Traveled:
407nm/1:33
Distance/Time
To Go:
Arrived

Flight Plot

Page will automatically refresh every two minutes.

Flight plan parsing failed; only flown route is shown


Map Options




Map Legend


Flown Route
Filed Route
Departure Airport
Arrival Airport
Navaid (VOR, NDB)
Fix

Horizontal Profiles

Position Reports

Time Latitude Longitude Heading Altitude Ground
Speed
11-Oct-20 12:47 34.153328 -114.271195 117 447ft 0kts
11-Oct-20 12:48 34.153328 -114.271195 117 447ft 0kts
11-Oct-20 12:49 34.152480 -114.271091 181 447ft 14kts
11-Oct-20 12:50 34.146716 -114.274497 206 446ft 26kts
11-Oct-20 12:51 34.142625 -114.272827 116 447ft 20kts
11-Oct-20 12:52 34.164436 -114.259599 18 1179ft 137kts
11-Oct-20 12:53 34.201372 -114.253149 355 3386ft 133kts
11-Oct-20 12:54 34.239622 -114.253459 19 5632ft 140kts
11-Oct-20 12:55 34.277048 -114.235277 19 8015ft 146kts
11-Oct-20 12:56 34.316217 -114.215671 19 10498ft 154kts
11-Oct-20 12:57 34.357715 -114.194754 18 12827ft 163kts
11-Oct-20 12:58 34.401103 -114.172802 15 15309ft 168kts
11-Oct-20 12:59 34.445705 -114.150251 13 17788ft 168kts
11-Oct-20 13:00 34.490194 -114.127742 12 20215ft 169kts
11-Oct-20 13:01 34.534562 -114.105277 10 22759ft 169kts
11-Oct-20 13:02 34.578111 -114.083209 10 25440ft 165kts
11-Oct-20 13:03 34.620324 -114.061795 11 27990ft 161kts
11-Oct-20 13:04 34.661582 -114.040843 12 30235ft 158kts
11-Oct-20 13:05 34.707694 -114.017457 15 31020ft 210kts
11-Oct-20 13:06 34.767737 -113.986791 15 31021ft 243kts
11-Oct-20 13:07 34.832570 -113.953668 15 31075ft 255kts
11-Oct-20 13:08 34.899688 -113.919328 15 30899ft 267kts
11-Oct-20 13:09 34.974296 -113.881117 15 29380ft 299kts
11-Oct-20 13:10 35.053483 -113.840450 15 27829ft 310kts
11-Oct-20 13:11 35.133374 -113.799275 15 27118ft 295kts
11-Oct-20 13:12 35.207935 -113.760821 15 27120ft 282kts
11-Oct-20 13:13 35.280887 -113.723133 15 27122ft 279kts
11-Oct-20 13:14 35.353586 -113.685495 15 27122ft 280kts
11-Oct-20 13:15 35.426489 -113.647676 15 27121ft 280kts
11-Oct-20 13:16 35.499029 -113.609972 15 27120ft 280kts
11-Oct-20 13:17 35.571556 -113.572198 15 27120ft 279kts
11-Oct-20 13:18 35.639518 -113.522670 42 27111ft 300kts
11-Oct-20 13:19 35.691286 -113.440680 42 27119ft 299kts
11-Oct-20 13:20 35.743460 -113.359064 42 27119ft 299kts
11-Oct-20 13:22 35.795889 -113.276887 42 27114ft 299kts
11-Oct-20 13:23 35.847872 -113.195215 42 27150ft 298kts
11-Oct-20 13:24 35.899878 -113.113315 42 27190ft 298kts
11-Oct-20 13:25 35.951419 -113.031950 42 27230ft 298kts
11-Oct-20 13:26 36.003369 -112.949729 42 27232ft 300kts
11-Oct-20 13:27 36.055496 -112.867049 41 27226ft 303kts
11-Oct-20 13:28 36.108559 -112.782688 41 27243ft 307kts
11-Oct-20 13:29 36.162081 -112.697394 41 27244ft 310kts
11-Oct-20 13:30 36.215801 -112.611548 41 27239ft 312kts
11-Oct-20 13:31 36.269720 -112.525161 41 27244ft 312kts
11-Oct-20 13:32 36.323513 -112.438768 41 27244ft 312kts
11-Oct-20 13:33 36.377321 -112.352130 41 27240ft 312kts
11-Oct-20 13:34 36.431048 -112.265395 42 27236ft 311kts
11-Oct-20 13:35 36.484765 -112.178462 42 27236ft 311kts
11-Oct-20 13:36 36.538239 -112.091700 42 27236ft 311kts
11-Oct-20 13:37 36.591659 -112.004806 42 27191ft 312kts
11-Oct-20 13:37 36.636326 -111.931972 42 27138ft 313kts
11-Oct-20 13:39 36.698826 -111.829798 42 27064ft 313kts
11-Oct-20 13:39 36.743262 -111.756962 42 27062ft 312kts
11-Oct-20 13:40 36.796405 -111.669654 42 27063ft 312kts
11-Oct-20 13:41 36.849474 -111.582243 42 27063ft 312kts
11-Oct-20 13:42 36.902570 -111.494557 42 27063ft 312kts
11-Oct-20 13:43 36.959697 -111.413187 33 27064ft 303kts
11-Oct-20 13:44 37.021445 -111.339177 33 27056ft 305kts
11-Oct-20 13:45 37.083524 -111.264634 33 27055ft 306kts
11-Oct-20 13:46 37.146281 -111.189156 33 27059ft 307kts
11-Oct-20 13:47 37.208392 -111.114148 33 27056ft 305kts
11-Oct-20 13:48 37.270396 -111.039131 33 27056ft 305kts
11-Oct-20 13:49 37.332498 -110.963829 32 27057ft 306kts
11-Oct-20 13:50 37.394953 -110.887920 32 27057ft 308kts
11-Oct-20 13:51 37.457564 -110.811643 32 27061ft 309kts
11-Oct-20 13:52 37.520258 -110.735066 32 27094ft 309kts
11-Oct-20 13:53 37.582785 -110.658502 32 27126ft 309kts
11-Oct-20 13:54 37.645113 -110.581994 32 27139ft 309kts
11-Oct-20 13:55 37.707537 -110.505177 32 27139ft 310kts
11-Oct-20 13:56 37.770811 -110.427124 32 27140ft 310kts
11-Oct-20 13:57 37.834723 -110.348076 33 27141ft 310kts
11-Oct-20 13:58 37.898455 -110.269050 32 27132ft 309kts
11-Oct-20 13:59 37.963237 -110.188583 33 26177ft 322kts
11-Oct-20 14:00 38.028596 -110.107107 34 24909ft 323kts
11-Oct-20 14:01 38.093123 -110.026389 34 24140ft 309kts
11-Oct-20 14:02 38.153757 -109.950423 34 24133ft 296kts
11-Oct-20 14:03 38.213208 -109.875770 34 24103ft 293kts
11-Oct-20 14:04 38.272307 -109.801365 34 24086ft 292kts
11-Oct-20 14:05 38.331082 -109.727191 34 24086ft 291kts
11-Oct-20 14:06 38.390775 -109.651692 34 24087ft 298kts
11-Oct-20 14:07 38.451443 -109.574804 34 23663ft 310kts
11-Oct-20 14:08 38.515601 -109.493234 36 22168ft 322kts
11-Oct-20 14:09 38.581186 -109.409599 36 20647ft 325kts
11-Oct-20 14:10 38.645773 -109.326979 38 19099ft 309kts
11-Oct-20 14:11 38.706373 -109.249327 38 17537ft 299kts
11-Oct-20 14:12 38.766287 -109.172320 39 15975ft 296kts
11-Oct-20 14:13 38.826165 -109.095177 39 14415ft 298kts
11-Oct-20 14:14 38.884197 -109.019758 44 13873ft 286kts
11-Oct-20 14:15 38.900561 -108.910932 79 13219ft 307kts
11-Oct-20 14:16 38.912591 -108.799552 79 12608ft 306kts
11-Oct-20 14:17 38.923174 -108.689043 98 11940ft 299kts
11-Oct-20 14:18 38.908720 -108.585674 99 11981ft 284kts
11-Oct-20 14:19 38.916713 -108.489904 30 11416ft 282kts
11-Oct-20 14:20 38.985052 -108.432061 29 10000ft 273kts
11-Oct-20 14:21 39.047452 -108.393653 2 9288ft 242kts
11-Oct-20 14:22 39.083117 -108.445798 284 7165ft 189kts
11-Oct-20 14:23 39.105029 -108.489756 302 5455ft 128kts
11-Oct-20 14:24 39.120651 -108.518299 303 4848ft 59kts
11-Oct-20 14:25 39.122408 -108.523573 215 4845ft 0kts
11-Oct-20 14:26 39.121802 -108.522810 125 4844ft 13kts
11-Oct-20 14:27 39.119889 -108.520915 30 4838ft 1kts
11-Oct-20 14:28 39.120004 -108.520814 34 4839ft 0kts
11-Oct-20 14:29 39.120004 -108.520814 34 4839ft 0kts
11-Oct-20 14:30 39.120004 -108.520814 34 4839ft 0kts
11-Oct-20 14:31 39.120004 -108.520814 34 4839ft 0kts
11-Oct-20 14:32 39.120004 -108.520814 34 4839ft 0kts
11-Oct-20 14:33 39.120004 -108.520814 34 4839ft 0kts
11-Oct-20 14:34 39.120004 -108.520814 34 4839ft 0kts

Navigation Log

Ident Type
Flight plan parsing failed, navigation log unavailable